createdAt,value
2022-10-01T00:01:18.953Z,10.30
2022-10-01T00:03:51.315Z,10.30
2022-10-01T00:06:20.749Z,10.20
2022-10-01T00:08:49.877Z,10.10
2022-10-01T00:11:23.431Z,10.10
2022-10-01T00:13:51.530Z,10.20
2022-10-01T00:16:22.286Z,10.20
2022-10-01T00:18:50.369Z,10.20
2022-10-01T00:21:20.430Z,10.20
2022-10-01T00:23:47.713Z,10.30
2022-10-01T00:26:23.005Z,10.40
2022-10-01T00:28:56.406Z,10.30
2022-10-01T00:31:24.295Z,10.30
2022-10-01T00:33:58.759Z,10.40
2022-10-01T00:36:26.889Z,10.40
2022-10-01T00:38:54.307Z,10.40
2022-10-01T00:41:21.127Z,10.30
2022-10-01T00:43:53.589Z,10.20
2022-10-01T00:46:35.786Z,10.20
2022-10-01T00:49:08.821Z,10.20
2022-10-01T00:51:42.664Z,10.30
2022-10-01T00:54:23.998Z,10.10
2022-10-01T00:56:55.458Z,10.20
2022-10-01T00:59:22.277Z,10.30
2022-10-01T01:01:49.436Z,10.30
2022-10-01T01:04:16.788Z,10.20
2022-10-01T01:06:58.427Z,10.20
2022-10-01T01:09:33.471Z,10.20
2022-10-01T01:12:10.353Z,10.10
2022-10-01T01:15:10.361Z,10.10
2022-10-01T01:17:55.926Z,10.10
2022-10-01T01:21:00.481Z,10.20
2022-10-01T01:23:55.305Z,10.20
2022-10-01T01:26:49.586Z,10.20
2022-10-01T01:29:33.039Z,10.20
2022-10-01T01:32:12.645Z,10.00
2022-10-01T01:34:45.669Z,10.00
2022-10-01T01:37:17.995Z,10.00
2022-10-01T01:39:56.420Z,9.90
2022-10-01T01:42:31.338Z,9.90
2022-10-01T01:45:00.863Z,9.90
2022-10-01T01:47:32.856Z,9.80
2022-10-01T01:50:02.933Z,9.80
2022-10-01T01:52:30.447Z,9.80
2022-10-01T01:54:58.101Z,9.80
2022-10-01T01:57:25.156Z,9.80
2022-10-01T01:59:54.158Z,9.70
2022-10-01T02:02:28.714Z,9.60
2022-10-01T02:05:07.158Z,9.60
2022-10-01T02:08:12.627Z,9.50
2022-10-01T02:11:07.657Z,9.50
2022-10-01T02:13:50.281Z,9.40
2022-10-01T02:16:35.935Z,9.20
2022-10-01T02:19:19.582Z,9.40
2022-10-01T02:21:53.011Z,9.20
2022-10-01T02:24:43.293Z,8.90
2022-10-01T02:27:26.780Z,8.60
2022-10-01T02:30:00.367Z,8.40
2022-10-01T02:32:30.297Z,8.40
2022-10-01T02:34:58.898Z,8.60
2022-10-01T02:37:27.178Z,8.70
2022-10-01T02:39:57.648Z,8.70
2022-10-01T02:42:32.660Z,8.60
2022-10-01T02:45:03.104Z,8.40
2022-10-01T02:47:39.854Z,8.50
2022-10-01T02:50:08.273Z,8.40
2022-10-01T02:52:40.769Z,8.20
2022-10-01T02:55:28.715Z,8.00
2022-10-01T02:57:56.984Z,7.90
2022-10-01T03:00:25.198Z,7.80
2022-10-01T03:02:52.746Z,7.80
2022-10-01T03:05:21.832Z,7.80
2022-10-01T03:07:49.602Z,7.70
2022-10-01T03:10:17.263Z,7.60
2022-10-01T03:12:46.670Z,7.60
2022-10-01T03:15:15.873Z,7.50
2022-10-01T03:17:43.177Z,7.50
2022-10-01T03:20:12.123Z,7.30
2022-10-01T03:22:45.974Z,7.40
2022-10-01T03:25:15.971Z,7.40
2022-10-01T03:27:43.708Z,7.40
2022-10-01T03:30:16.595Z,7.30
2022-10-01T03:32:44.001Z,7.30
2022-10-01T03:35:11.086Z,7.20
2022-10-01T03:37:40.375Z,7.10
2022-10-01T03:40:07.655Z,7.00
2022-10-01T03:42:34.627Z,7.20
2022-10-01T03:45:01.560Z,7.30
2022-10-01T03:47:28.630Z,7.20
2022-10-01T03:49:55.672Z,7.20
2022-10-01T03:52:22.857Z,7.20
2022-10-01T03:54:54.770Z,7.40
2022-10-01T03:57:21.820Z,7.30
2022-10-01T03:59:49.507Z,7.20
2022-10-01T04:02:20.306Z,7.30
2022-10-01T04:04:48.061Z,7.30
2022-10-01T04:07:15.025Z,7.40
2022-10-01T04:09:41.926Z,7.30
2022-10-01T04:12:09.890Z,7.30
2022-10-01T04:14:39.987Z,7.40
2022-10-01T04:17:09.743Z,7.50
2022-10-01T04:19:36.935Z,7.40
2022-10-01T04:22:04.070Z,7.50
2022-10-01T04:24:33.631Z,7.50
2022-10-01T04:27:10.893Z,7.40
2022-10-01T04:29:40.953Z,7.40
2022-10-01T04:32:09.955Z,7.40
2022-10-01T04:34:58.908Z,7.20
2022-10-01T04:37:27.607Z,7.20
2022-10-01T04:39:59.119Z,7.30
2022-10-01T04:42:26.203Z,7.40
2022-10-01T04:44:53.341Z,7.30
2022-10-01T04:47:20.507Z,7.20
2022-10-01T04:49:56.282Z,7.20
2022-10-01T04:56:40.101Z,7.10
2022-10-01T04:59:50.911Z,7.10
2022-10-01T05:03:13.402Z,7.10
2022-10-01T05:06:53.052Z,7.30
2022-10-01T05:09:59.609Z,7.20
2022-10-01T05:12:54.090Z,7.30
2022-10-01T05:15:53.942Z,7.50
2022-10-01T05:18:58.463Z,7.40
2022-10-01T05:22:06.165Z,7.40
2022-10-01T05:25:16.531Z,7.50
2022-10-01T05:27:51.770Z,7.60
2022-10-01T05:30:24.545Z,7.70
2022-10-01T05:32:57.106Z,7.70
2022-10-01T05:35:31.562Z,7.70
2022-10-01T05:38:05.903Z,7.70
2022-10-01T05:40:37.100Z,7.80
2022-10-01T05:43:04.702Z,7.80
2022-10-01T05:45:37.608Z,7.90
2022-10-01T05:48:10.167Z,8.00
2022-10-01T05:50:49.212Z,8.10
2022-10-01T05:53:21.845Z,8.10
2022-10-01T05:56:00.324Z,8.10
2022-10-01T05:58:27.469Z,8.30
2022-10-01T06:01:04.805Z,8.30
2022-10-01T06:03:46.447Z,8.40
2022-10-01T06:06:17.906Z,8.40
2022-10-01T06:08:48.510Z,8.40
2022-10-01T06:11:31.549Z,8.50
2022-10-01T06:14:08.752Z,8.60
2022-10-01T06:16:38.066Z,8.70
2022-10-01T06:19:06.466Z,8.90
2022-10-01T06:21:36.517Z,9.00
2022-10-01T06:24:07.454Z,9.20
2022-10-01T06:26:49.856Z,9.30
2022-10-01T06:29:17.140Z,9.30
2022-10-01T06:31:44.026Z,9.30
2022-10-01T06:34:10.805Z,9.50
2022-10-01T06:36:37.558Z,9.50
2022-10-01T06:39:06.036Z,9.60
2022-10-01T06:41:34.725Z,9.80
2022-10-01T06:44:12.281Z,9.80
2022-10-01T06:46:41.770Z,9.90
2022-10-01T06:49:09.025Z,9.90
2022-10-01T06:52:02.059Z,9.90
2022-10-01T06:54:47.437Z,10.00
2022-10-01T06:57:45.099Z,10.10
2022-10-01T07:00:54.078Z,10.10
2022-10-01T07:03:22.646Z,10.30
2022-10-01T07:05:50.261Z,10.40
2022-10-01T07:08:21.155Z,10.50
2022-10-01T07:10:48.023Z,10.50
2022-10-01T07:13:20.376Z,10.60
2022-10-01T07:15:47.284Z,10.60
2022-10-01T07:18:24.605Z,10.70
2022-10-01T07:21:07.574Z,10.90
2022-10-01T07:23:43.616Z,11.00
2022-10-01T07:26:10.881Z,11.20
2022-10-01T07:28:40.580Z,11.10
2022-10-01T07:31:11.506Z,11.30
2022-10-01T07:33:40.835Z,11.40
2022-10-01T07:36:13.933Z,11.60
2022-10-01T07:38:47.506Z,11.60
2022-10-01T07:41:16.710Z,11.60
2022-10-01T07:43:46.721Z,11.50
2022-10-01T07:46:16.906Z,11.50
2022-10-01T07:49:00.140Z,11.60
2022-10-01T07:51:31.116Z,11.50
2022-10-01T07:54:00.624Z,11.50
2022-10-01T07:56:32.003Z,11.40
2022-10-01T07:59:04.739Z,11.40
2022-10-01T08:01:38.093Z,11.30
2022-10-01T08:04:26.329Z,11.50
2022-10-01T08:06:59.707Z,11.40
2022-10-01T08:09:42.426Z,11.50
2022-10-01T08:12:37.783Z,11.50
2022-10-01T08:15:31.290Z,11.70
2022-10-01T08:18:24.021Z,11.60
2022-10-01T08:20:59.783Z,11.70
2022-10-01T08:23:46.821Z,11.80
2022-10-01T08:26:16.356Z,11.90
2022-10-01T08:29:04.683Z,11.90
2022-10-01T08:31:39.009Z,11.90
2022-10-01T08:34:06.700Z,12.10
2022-10-01T08:36:35.959Z,12.30
2022-10-01T08:39:03.055Z,12.30
2022-10-01T08:41:59.437Z,12.30
2022-10-01T08:44:53.226Z,12.20
2022-10-01T08:47:52.913Z,12.20
2022-10-01T08:50:48.536Z,12.10
2022-10-01T08:53:36.391Z,12.10
2022-10-01T08:56:13.797Z,12.20
2022-10-01T08:59:07.234Z,12.10
2022-10-01T09:01:37.853Z,12.10
2022-10-01T09:04:20.019Z,12.20
2022-10-01T09:10:46.511Z,12.20
2022-10-01T09:13:43.332Z,12.30
2022-10-01T09:16:16.572Z,12.30
2022-10-01T09:19:01.823Z,12.30
2022-10-01T09:21:38.643Z,12.20
2022-10-01T09:24:16.801Z,12.30
2022-10-01T09:26:48.830Z,12.50
2022-10-01T09:29:39.859Z,12.60
2022-10-01T09:32:06.942Z,12.40
2022-10-01T09:34:42.224Z,12.50
2022-10-01T09:37:27.367Z,12.70
2022-10-01T09:40:19.374Z,12.60
2022-10-01T09:42:48.058Z,12.90
2022-10-01T09:45:15.794Z,13.20
2022-10-01T09:47:48.175Z,13.10
2022-10-01T09:50:31.534Z,12.90
2022-10-01T09:53:00.181Z,12.80
2022-10-01T09:55:38.936Z,12.60
2022-10-01T09:58:18.497Z,12.50
2022-10-01T10:00:45.750Z,12.40
2022-10-01T10:03:23.731Z,12.40
2022-10-01T10:05:50.914Z,12.40
2022-10-01T10:08:36.518Z,12.60
2022-10-01T10:11:08.325Z,12.50
2022-10-01T10:13:40.391Z,12.50
2022-10-01T10:16:15.562Z,12.50
2022-10-01T10:18:42.638Z,12.40
2022-10-01T10:21:16.395Z,12.50
2022-10-01T10:24:22.448Z,12.40
2022-10-01T10:26:56.124Z,12.40
2022-10-01T10:29:31.790Z,12.40
2022-10-01T10:32:03.078Z,12.30
2022-10-01T10:34:33.718Z,12.30
2022-10-01T10:37:05.236Z,12.20
2022-10-01T10:39:36.488Z,12.20
2022-10-01T10:42:05.634Z,12.20
2022-10-01T10:44:38.871Z,12.10
2022-10-01T10:47:11.323Z,11.90
2022-10-01T10:50:04.323Z,12.10
2022-10-01T10:52:36.342Z,12.10
2022-10-01T10:55:23.961Z,12.10
2022-10-01T10:57:57.263Z,12.00
2022-10-01T11:00:26.339Z,11.90
2022-10-01T11:02:59.798Z,11.80
2022-10-01T11:05:29.961Z,11.80
2022-10-01T11:08:00.439Z,11.80
2022-10-01T11:10:39.406Z,11.80
2022-10-01T11:13:25.547Z,11.70
2022-10-01T11:16:34.112Z,11.60
2022-10-01T11:19:40.197Z,11.50
2022-10-01T11:22:21.558Z,11.60
2022-10-01T11:25:32.490Z,11.30
2022-10-01T11:28:14.757Z,11.30
2022-10-01T11:30:51.108Z,11.30
2022-10-01T11:33:45.261Z,11.10
2022-10-01T11:36:37.172Z,11.00
2022-10-01T11:39:22.477Z,11.00
2022-10-01T11:41:53.346Z,10.90
2022-10-01T11:44:26.582Z,10.70
2022-10-01T11:47:10.413Z,10.70
2022-10-01T11:50:18.809Z,10.60
2022-10-01T11:53:04.904Z,10.80
2022-10-01T11:56:12.261Z,10.70
2022-10-01T12:06:02.486Z,10.40
2022-10-01T12:09:39.818Z,10.20
2022-10-01T12:12:43.551Z,10.30
2022-10-01T12:15:37.793Z,10.60
2022-10-01T12:18:39.158Z,10.40
2022-10-01T12:21:36.123Z,10.20
2022-10-01T12:24:13.848Z,10.40
2022-10-01T12:26:47.043Z,10.30
2022-10-01T12:29:32.820Z,10.40
2022-10-01T12:32:30.464Z,10.60
2022-10-01T12:35:16.285Z,10.60
2022-10-01T12:38:01.988Z,10.30
2022-10-01T12:40:44.552Z,10.30
2022-10-01T12:43:43.220Z,10.30
2022-10-01T12:46:23.579Z,10.30
2022-10-01T12:48:59.721Z,10.30
2022-10-01T12:51:53.322Z,10.40
2022-10-01T12:54:31.201Z,10.50
2022-10-01T12:57:21.425Z,10.50
2022-10-01T13:00:19.295Z,10.50
2022-10-01T13:03:17.989Z,10.60
2022-10-01T13:06:01.868Z,10.50
2022-10-01T13:08:50.056Z,10.40
2022-10-01T13:11:51.389Z,10.50
2022-10-01T13:14:19.767Z,10.40
2022-10-01T13:17:32.620Z,10.30
2022-10-01T13:20:22.282Z,10.40
2022-10-01T13:23:16.048Z,10.40
2022-10-01T13:26:00.009Z,10.40
2022-10-01T13:28:50.408Z,10.60
2022-10-01T13:31:20.879Z,10.40
2022-10-01T13:33:56.002Z,10.40
2022-10-01T13:36:34.857Z,10.60
2022-10-01T13:39:02.181Z,10.70
2022-10-01T13:41:32.110Z,10.50
2022-10-01T13:44:10.889Z,10.50
2022-10-01T13:46:52.170Z,10.60
2022-10-01T13:49:27.985Z,10.60
2022-10-01T13:51:56.080Z,10.60
2022-10-01T13:54:40.048Z,10.60
2022-10-01T13:57:25.019Z,10.60
2022-10-01T14:00:31.562Z,10.60
2022-10-01T14:03:01.273Z,10.60
2022-10-01T14:05:34.994Z,10.70
2022-10-01T14:08:27.312Z,10.60
2022-10-01T14:11:30.170Z,10.60
2022-10-01T14:19:05.489Z,10.70
2022-10-01T14:22:56.767Z,10.90
2022-10-01T14:31:11.335Z,10.80
2022-10-01T14:56:56.601Z,10.80
2022-10-01T15:00:22.686Z,11.00
2022-10-01T15:03:03.571Z,11.00
2022-10-01T15:05:38.087Z,11.00
2022-10-01T15:08:16.265Z,11.00
2022-10-01T15:11:00.524Z,10.90
2022-10-01T15:21:30.768Z,10.90
2022-10-01T15:24:21.099Z,11.00
2022-10-01T15:27:02.072Z,10.90
2022-10-01T15:29:42.856Z,10.90
2022-10-01T15:32:40.279Z,10.80
2022-10-01T15:35:21.636Z,10.90
2022-10-01T15:38:00.614Z,10.80
2022-10-01T15:40:33.418Z,10.70
2022-10-01T15:43:55.220Z,10.70
2022-10-01T16:20:04.535Z,10.60
2022-10-01T16:28:08.639Z,10.50
2022-10-01T16:31:59.748Z,10.50
2022-10-01T17:12:25.094Z,10.90
2022-10-01T17:46:37.611Z,11.00
2022-10-01T17:54:04.953Z,11.00
2022-10-01T18:14:09.208Z,11.00
2022-10-01T18:51:14.167Z,10.90
2022-10-01T21:54:16.644Z,11.20
2022-10-01T22:00:58.643Z,11.10
2022-10-01T22:25:08.823Z,11.10
2022-10-01T23:39:58.600Z,11.30
2022-10-01T23:42:37.505Z,11.30
2022-10-01T23:45:20.878Z,11.30
2022-10-01T23:48:06.194Z,11.30
2022-10-01T23:50:37.356Z,11.30
2022-10-01T23:53:14.594Z,11.30
2022-10-01T23:56:26.287Z,11.40
2022-10-01T23:59:31.182Z,11.30
